Latest Coastal Weather Observations for Devonport Airport

IDV60701

Issued at 6:41 pm EDT Saturday 29 February 2020 (issued every 10 minutes, with the page automatically refreshed every 10 minutes)

About coastal observations | Map of coastal stations | Coastal observations for VIC | Marine services | Other Formats
Station Details ID: 091126 Name: DEVONPORT AIRPORT Lat: -41.17 Lon: 146.43 Height: 8.0 m
Data from the previous 72 hours. | See also: Recent months at Devonport Airport
Date/Time
EDT
Wind Sea
Height
m
Swell Vis
km
Cloud Weather Temp
°C
Press
hPa
Rain since
9am
mm
Dir  Spd
kts
Gust
kts
Height
m
Period
s
Dir
29/06:30pm NW 24 31 - - - - 10 Clear - 18.2 1010.2 0.0
29/06:00pm NW 22 27 - - - - 10 - - 18.5 1009.9 0.0
29/05:30pm NW 22 28 - - - - 10 - - 19.1 1010.0 0.0
29/05:00pm NW 21 26 - - - - 10 - - 19.0 1010.1 0.0
29/04:30pm NW 22 29 - - - - 10 - - 19.1 1010.2 0.0
29/04:00pm NW 22 28 - - - - 10 - - 19.0 1010.4 0.0
29/03:30pm NW 21 29 - - - - 10 - - 19.4 1010.8 0.0
29/03:00pm NW 21 29 - - - - 10 - - 20.0 1011.3 0.0
29/02:30pm NW 19 24 - - - - 10 - - 19.7 1011.7 0.0
29/02:00pm NW 20 25 - - - - 10 - - 19.4 1011.9 0.0
29/01:30pm NW 18 22 - - - - 10 - - 19.4 1012.1 0.0
29/01:00pm NW 17 22 - - - - 10 - - 19.0 1012.5 0.0
29/12:30pm NW 17 20 - - - - 10 - - 18.7 1012.8 0.0
29/12:00pm NW 19 23 - - - - 10 - - 18.4 1013.0 0.0
29/11:30am NW 18 22 - - - - 10 - - 18.2 1013.1 0.0
29/11:00am NW 17 21 - - - - 10 - - 17.4 1013.2 0.0
29/10:30am NW 16 19 - - - - 10 - - 17.4 1013.3 0.0
29/10:00am NW 15 19 - - - - 10 - - 17.2 1013.5 0.0
29/09:30am WNW 15 19 - - - - 10 - - 16.3 1013.3 0.0
29/09:00am WNW 16 21 - - - - 10 - - 15.7 1013.3 0.0
29/08:30am WNW 16 20 - - - - 10 - - 15.8 1013.1 0.0
29/08:00am WNW 16 21 - - - - 10 - - 15.2 1013.1 0.0
29/07:30am WNW 15 20 - - - - 10 - - 14.4 1013.0 0.0
29/07:00am WNW 13 16 - - - - 10 - - 14.3 1012.8 0.0
29/06:30am WNW 13 15 - - - - 10 - - 14.0 1012.5 0.0
29/06:00am WNW 11 14 - - - - 10 - - 13.8 1012.6 0.0
29/05:30am WSW 6 8 - - - - 10 - - 12.3 1012.7 0.0
29/05:00am W 11 16 - - - - 10 - - 13.0 1012.6 0.0
29/04:30am W 10 15 - - - - 10 - - 13.6 1012.9 0.0
29/04:00am WNW 15 18 - - - - 10 - - 14.2 1012.9 0.0
29/03:30am WNW 15 18 - - - - 10 - - 14.2 1013.0 0.0
29/03:00am WNW 15 19 - - - - 10 - - 14.0 1013.0 0.0
29/02:30am WNW 14 18 - - - - 10 - - 14.1 1013.1 0.0
29/02:00am WNW 15 19 - - - - 10 - - 14.0 1013.0 0.0
29/01:30am W 13 15 - - - - 10 - - 13.6 1013.1 0.0
29/01:00am W 12 16 - - - - 10 - - 13.7 1013.2 0.0
29/12:30am W 12 15 - - - - 10 - - 14.0 1013.0 0.0
29/12:00am W 10 12 - - - - 10 - - 14.0 1013.1 0.0
 
Date/Time
EDT
Wind Sea
Height
m
Swell Vis
km
Cloud Weather Temp
°C
Press
hPa
Rain since
9am
mm
Dir  Spd
kts
Gust
kts
Height
m
Period
s
Dir
28/11:30pm W 9 12 - - - - 10 - - 14.4 1013.2 0.0
28/11:00pm W 9 13 - - - - 10 - - 14.8 1013.1 0.0
28/10:30pm W 10 14 - - - - 10 - - 14.7 1013.0 0.0
28/10:00pm W 14 18 - - - - 10 - - 14.9 1012.9 0.0
28/09:30pm W 12 15 - - - - 10 - - 15.2 1012.8 0.0
28/09:00pm W 12 15 - - - - 10 - - 15.8 1012.5 0.0
28/08:30pm W 9 11 - - - - 10 - - 15.8 1011.9 0.0
28/08:00pm W 15 19 - - - - 10 - - 17.1 1011.5 0.0
28/07:30pm W 15 19 - - - - 10 - - 18.2 1011.1 0.0
28/07:00pm W 13 18 - - - - 10 - - 18.9 1010.8 0.0
28/06:30pm WSW 14 19 - - - - 10 - - 19.7 1010.6 0.0
28/06:00pm W 17 21 - - - - 10 - - 20.0 1010.3 0.0
28/05:30pm W 16 21 - - - - 10 - - 20.4 1010.2 0.0
28/05:00pm W 18 23 - - - - 10 - - 20.6 1009.9 0.0
28/04:30pm W 15 20 - - - - 10 - - 20.6 1009.8 0.0
28/04:00pm W 17 25 - - - - 10 - - 20.7 1009.9 0.0
28/03:30pm WNW 14 19 - - - - 10 - - 20.7 1010.1 0.0
28/03:00pm W 12 18 - - - - 10 - - 20.8 1010.3 0.0
28/02:30pm WNW 14 20 - - - - 10 - - 20.9 1010.3 0.0
28/02:00pm W 14 18 - - - - 10 - - 20.0 1010.6 0.0
28/01:30pm W 16 20 - - - - 10 Partly cloudy - 20.4 1010.7 0.0
28/01:00pm SW 16 22 - - - - 10 - - 18.5 1010.8 0.0
28/12:30pm SW 12 16 - - - - 10 Partly cloudy - 17.2 1011.1 0.0
28/12:00pm W 17 24 - - - - 10 Mostly clear - 18.6 1011.1 0.0
28/11:30am WSW 15 20 - - - - 10 Partly cloudy - 17.7 1010.8 0.0
28/11:00am WSW 14 22 - - - - 10 Partly cloudy - 16.4 1010.7 0.0
28/10:30am WSW 15 19 - - - - 10 Partly cloudy - 16.7 1010.4 0.0
28/10:00am WNW 15 19 - - - - 10 - - 15.5 1010.0 0.0
28/09:30am WNW 14 17 - - - - 10 Partly cloudy - 15.0 1009.8 0.0
28/09:00am W 13 17 - - - - 10 Mostly clear - 14.5 1009.5 0.0
28/08:30am W 13 18 - - - - 10 Partly cloudy - 13.6 1009.2 0.0
28/08:00am W 13 15 - - - - 10 - - 12.6 1008.7 0.0
28/07:30am W 11 13 - - - - 10 Partly cloudy - 12.0 1008.4 0.0
28/07:00am W 10 13 - - - - 10 Partly cloudy - 11.6 1008.0 0.0
28/06:30am W 11 14 - - - - 10 Partly cloudy - 12.2 1007.5 0.0
28/06:00am W 11 14 - - - - 10 Mostly cloudy - 12.0 1006.7 0.0
28/05:30am W 9 11 - - - - 10 Partly cloudy - 10.6 1006.2 0.0
28/05:00am W 10 13 - - - - 10 - - 11.3 1005.7 0.0
28/04:30am W 12 16 - - - - 10 Partly cloudy - 11.8 1004.9 0.0
28/04:00am W 9 12 - - - - 10 Partly cloudy - 12.9 1005.0 0.0
28/03:30am W 8 11 - - - - 10 Partly cloudy - 12.4 1004.5 0.0
28/03:00am W 16 23 - - - - 10 Cloudy - 13.0 1004.0 0.0
28/02:30am W 12 16 - - - - 10 Partly cloudy - 12.4 1003.8 0.0
28/02:00am W 13 19 - - - - 10 - - 12.4 1003.6 0.0
28/01:34am W 15 26 - - - - 10 Partly cloudy - 12.7 1003.5 0.0
28/01:30am W 15 23 - - - - 10 Partly cloudy - 12.8 1003.5 0.0
28/01:00am W 14 19 - - - - 10 Partly cloudy - 13.0 1003.4 0.0
28/12:30am W 17 21 - - - - 10 Partly cloudy - 12.6 1003.3 0.0
28/12:00am W 15 20 - - - - 10 Cloudy - 12.9 1003.4 0.0
 
Date/Time
EDT
Wind Sea
Height
m
Swell Vis
km
Cloud Weather Temp
°C
Press
hPa
Rain since
9am
mm
Dir  Spd
kts
Gust
kts
Height
m
Period
s
Dir
27/11:30pm W 15 21 - - - - 10 Partly cloudy - 12.8 1003.3 0.0
27/11:23pm W 16 26 - - - - 10 Partly cloudy - 13.0 1003.0 0.0
27/11:00pm W 17 23 - - - - 10 Partly cloudy - 13.4 1003.1 0.0
27/10:30pm W 16 21 - - - - 10 Partly cloudy - 13.3 1002.9 0.0
27/10:00pm W 20 26 - - - - 10 Partly cloudy - 13.5 1003.2 0.0
27/09:30pm W 18 22 - - - - 10 - - 13.3 1002.9 0.0
27/09:00pm W 16 21 - - - - 10 - - 13.8 1002.5 0.0
27/08:30pm W 21 25 - - - - 10 Partly cloudy - 14.5 1002.2 0.0
27/08:00pm W 19 24 - - - - 10 - - 14.5 1001.8 0.0
27/07:30pm W 22 28 - - - - 10 Partly cloudy - 15.2 1001.4 0.0
27/07:03pm W 23 33 - - - - 10 Partly cloudy - 15.8 1001.2 0.0
27/07:00pm W 23 30 - - - - 10 Partly cloudy - 16.0 1001.1 0.0
27/06:49pm W 20 32 - - - - 10 Partly cloudy - 16.2 1001.2 0.0
27/06:30pm W 25 34 - - - - 10 Partly cloudy - 16.6 1001.2 0.0
27/06:00pm WSW 21 31 - - - - 10 Mostly cloudy - 17.7 1000.7 0.0
27/05:32pm W 23 33 - - - - 10 Partly cloudy - 18.1 1000.6 0.0
27/05:30pm W 22 29 - - - - 10 Partly cloudy - 18.2 1000.5 0.0
27/05:00pm W 23 30 - - - - 10 Partly cloudy - 18.6 1000.3 0.0
27/04:35pm W 26 36 - - - - 10 Partly cloudy - 18.1 1000.8 0.0
27/04:30pm W 28 36 - - - - 10 Partly cloudy - 17.5 1000.8 0.0
27/04:25pm W 25 36 - - - - 10 Partly cloudy - 17.6 1000.5 0.0
27/04:17pm W 24 32 - - - - 10 Partly cloudy - 17.3 1000.8 0.0
27/04:03pm WNW 24 34 - - - - 10 Partly cloudy - 17.7 1000.5 0.0
27/04:00pm WNW 23 28 - - - - 10 Partly cloudy - 17.6 1000.5 0.0
27/03:30pm WNW 24 29 - - - - 10 Partly cloudy - 17.7 1000.7 0.0
27/03:00pm NW 26 34 - - - - 10 Cloudy - 17.0 1001.3 0.0
27/02:30pm NW 27 34 - - - - 10 Partly cloudy - 16.9 1001.4 0.0
27/02:00pm WNW 25 31 - - - - 10 Partly cloudy - 17.9 1001.6 0.0
27/01:30pm WNW 25 30 - - - - 10 Partly cloudy - 18.7 1002.3 0.0
27/01:00pm WNW 25 33 - - - - 10 Partly cloudy - 17.8 1002.5 0.0
27/12:30pm NW 25 32 - - - - 10 Partly cloudy - 17.6 1003.0 0.0
27/12:00pm WNW 24 30 - - - - 10 Cloudy - 18.4 1004.0 0.0
27/11:30am WNW 23 29 - - - - 10 Partly cloudy - 15.6 1004.0 0.0
27/11:00am WNW 24 30 - - - - 10 Partly cloudy - 16.4 1003.9 0.0
27/10:30am WNW 22 30 - - - - 10 Partly cloudy - 15.7 1004.6 0.0
27/10:00am WNW 22 29 - - - - 10 Partly cloudy - 15.9 1004.8 0.0
27/09:30am WNW 21 28 - - - - 10 Partly cloudy - 14.2 1004.8 0.0
27/09:00am WNW 20 25 - - - - 10 Partly cloudy - 14.5 1005.1 1.4
27/08:30am WNW 22 27 - - - - 10 Partly cloudy - 13.5 1005.2 1.4
27/08:00am WNW 21 25 - - - - 10 Partly cloudy - 13.1 1005.3 1.4
27/07:30am WNW 21 26 - - - - 10 Cloudy - 13.0 1005.2 1.4
27/07:00am WNW 24 30 - - - - 10 Cloudy - 13.1 1005.2 1.4
27/06:30am WNW 21 28 - - - - 10 Cloudy - 13.3 1005.2 1.4
27/06:00am WNW 18 23 - - - - 10 Cloudy - 12.7 1005.4 1.4
27/05:30am WNW 19 24 - - - - 10 Partly cloudy - 12.4 1005.7 1.4
27/05:00am W 18 25 - - - - 10 Partly cloudy - 12.5 1005.9 1.4
27/04:30am W 17 22 - - - - 10 Cloudy - 12.5 1006.0 1.4
27/04:00am WNW 20 26 - - - - 10 Partly cloudy - 12.6 1006.3 1.4
27/03:30am W 13 18 - - - - 10 Partly cloudy - 12.2 1006.6 1.4
27/03:00am WNW 15 21 - - - - 10 Cloudy - 12.2 1006.6 1.4
27/02:30am WSW 10 14 - - - - 10 Cloudy - 11.1 1007.4 1.4
27/02:00am WSW 7 9 - - - - 10 Partly cloudy - 10.2 1007.7 1.4
27/01:30am W 13 18 - - - - 10 Partly cloudy - 11.3 1008.3 1.4
27/01:00am W 11 13 - - - - 10 - - 10.8 1008.2 1.4
27/12:30am WSW 9 10 - - - - 10 Partly cloudy - 9.9 1008.6 1.4
27/12:00am WSW 11 13 - - - - 10 Mostly clear - 10.4 1008.8 1.4
 
Date/Time
EDT
Wind Sea
Height
m
Swell Vis
km
Cloud Weather Temp
°C
Press
hPa
Rain since
9am
mm
Dir  Spd
kts
Gust
kts
Height
m
Period
s
Dir
26/11:30pm W 12 16 - - - - 10 - - 10.9 1009.0 1.4
26/11:00pm W 11 13 - - - - 10 Partly cloudy - 10.9 1009.0 1.4
26/10:30pm W 11 14 - - - - 10 - - 10.6 1009.2 1.4
26/10:00pm W 7 9 - - - - 10 - - 9.4 1009.2 1.4
26/09:30pm WSW 8 10 - - - - 10 - - 10.2 1009.1 1.4
26/09:00pm WSW 10 13 - - - - 10 - - 11.6 1008.9 1.4
26/08:30pm WSW 11 14 - - - - 10 - - 12.1 1008.5 1.4
26/08:00pm SW 9 12 - - - - 10 - - 12.4 1008.0 1.4
26/07:30pm SW 13 17 - - - - 10 - - 13.7 1007.6 1.4
26/07:00pm SW 14 18 - - - - 10 - - 14.9 1007.5 1.4

Other formats

Comma delimited format used in spreadsheet applications
http://www.bom.gov.au/fwo/IDV60701/IDV60701.95960.axf

JavaScript Object Notation format (JSON) in row-major order
http://www.bom.gov.au/fwo/IDV60701/IDV60701.95960.json

Data quality

Most of these data are generated automatically and are frequently updated. Quality checks on data are not normally performed. It is possible for incorrect values to appear. Refer to information at About Latest Weather Observations and please check the disclaimer before using these data.